CheckWX is a tool to help pilots better visualize weather data.  It is not intended as a substitute for an official pre-flight weather briefing.

09:30:40 UTC

KHZX METAR
Isedor Iverson Airport
Mc Gregor, Minnesota, USA
Current

35 mins ago

KHZX 200856Z AUTO 12003KT 10SM CLR M12/M16 A3010 RMK AO2
Observed
Feb-20 @ 08:56 UTC
Wind
  • 120° at 3 KTS
Visibility
16,093 meters
Flight Rules
VFR
Cloud Levels
  • Clear skies
Temperature
-12°C / 10°F
Dewpoint
-16°C / 3°F
Humidity
72%
Altimeter
30.1" Hg
Pressure
1019.32 hPa
Previous

56 mins ago

KHZX 200835Z AUTO 12004KT 10SM CLR M13/M16 A3010 RMK AO2
Observed
Feb-20 @ 08:35 UTC
Wind
  • 120° at 4 KTS
Visibility
16,093 meters
Flight Rules
VFR
Cloud Levels
  • Clear skies
Temperature
-13°C / 9°F
Dewpoint
-16°C / 3°F
Humidity
78%
Altimeter
30.1" Hg
Pressure
1019.32 hPa
Previous

1 hour ago

KHZX 200816Z AUTO 09004KT 10SM CLR M13/M16 A3011 RMK AO2
Observed
Feb-20 @ 08:16 UTC
Wind
  • 090° at 4 KTS
Visibility
16,093 meters
Flight Rules
VFR
Cloud Levels
  • Clear skies
Temperature
-13°C / 9°F
Dewpoint
-16°C / 3°F
Humidity
78%
Altimeter
30.11" Hg
Pressure
1019.62 hPa